sensor_id;sensor_type;location;lat;lon;timestamp;P1;durP1;ratioP1;P2;durP2;ratioP2
13975;SDS011;7062;49.792;9.946;2023-12-29T00:01:47;3.07;;;2.27;;
13975;SDS011;7062;49.792;9.946;2023-12-29T00:04:13;2.97;;;1.90;;
13975;SDS011;7062;49.792;9.946;2023-12-29T00:06:39;2.83;;;2.37;;
13975;SDS011;7062;49.792;9.946;2023-12-29T00:09:05;2.30;;;2.00;;
13975;SDS011;7062;49.792;9.946;2023-12-29T00:11:32;2.70;;;2.10;;
13975;SDS011;7062;49.792;9.946;2023-12-29T00:13:59;2.77;;;2.30;;
13975;SDS011;7062;49.792;9.946;2023-12-29T00:16:24;2.13;;;1.87;;
13975;SDS011;7062;49.792;9.946;2023-12-29T00:18:52;3.47;;;2.33;;
13975;SDS011;7062;49.792;9.946;2023-12-29T00:21:17;2.57;;;1.73;;
13975;SDS011;7062;49.792;9.946;2023-12-29T00:23:43;4.03;;;2.23;;
13975;SDS011;7062;49.792;9.946;2023-12-29T00:26:09;2.90;;;1.73;;
13975;SDS011;7062;49.792;9.946;2023-12-29T00:28:34;3.47;;;2.00;;
13975;SDS011;7062;49.792;9.946;2023-12-29T00:31:01;2.10;;;1.90;;
13975;SDS011;7062;49.792;9.946;2023-12-29T00:33:27;1.70;;;1.50;;
13975;SDS011;7062;49.792;9.946;2023-12-29T00:35:53;2.47;;;2.03;;
13975;SDS011;7062;49.792;9.946;2023-12-29T00:38:18;2.13;;;1.60;;
13975;SDS011;7062;49.792;9.946;2023-12-29T00:40:44;2.30;;;1.73;;
13975;SDS011;7062;49.792;9.946;2023-12-29T00:43:09;2.27;;;1.60;;
13975;SDS011;7062;49.792;9.946;2023-12-29T00:45:35;3.13;;;1.80;;
13975;SDS011;7062;49.792;9.946;2023-12-29T00:48:01;3.13;;;2.40;;
13975;SDS011;7062;49.792;9.946;2023-12-29T00:50:27;2.70;;;2.00;;
13975;SDS011;7062;49.792;9.946;2023-12-29T00:52:53;3.37;;;1.93;;
13975;SDS011;7062;49.792;9.946;2023-12-29T00:55:19;2.03;;;1.60;;
13975;SDS011;7062;49.792;9.946;2023-12-29T00:57:45;2.40;;;1.77;;
13975;SDS011;7062;49.792;9.946;2023-12-29T01:00:11;2.37;;;1.77;;
13975;SDS011;7062;49.792;9.946;2023-12-29T01:02:38;2.73;;;2.07;;
13975;SDS011;7062;49.792;9.946;2023-12-29T01:05:04;3.40;;;1.70;;
13975;SDS011;7062;49.792;9.946;2023-12-29T01:07:30;1.67;;;1.57;;
13975;SDS011;7062;49.792;9.946;2023-12-29T01:09:56;2.10;;;1.90;;
13975;SDS011;7062;49.792;9.946;2023-12-29T01:12:22;2.23;;;1.90;;
13975;SDS011;7062;49.792;9.946;2023-12-29T01:14:47;2.33;;;1.30;;
13975;SDS011;7062;49.792;9.946;2023-12-29T01:17:13;1.97;;;1.60;;
13975;SDS011;7062;49.792;9.946;2023-12-29T01:19:39;2.70;;;2.07;;
13975;SDS011;7062;49.792;9.946;2023-12-29T01:22:04;3.33;;;2.23;;
13975;SDS011;7062;49.792;9.946;2023-12-29T01:24:30;3.03;;;1.93;;
13975;SDS011;7062;49.792;9.946;2023-12-29T01:26:56;2.33;;;1.93;;
13975;SDS011;7062;49.792;9.946;2023-12-29T01:29:21;2.80;;;2.20;;
13975;SDS011;7062;49.792;9.946;2023-12-29T01:31:47;4.07;;;2.13;;
13975;SDS011;7062;49.792;9.946;2023-12-29T01:34:13;5.03;;;1.63;;
13975;SDS011;7062;49.792;9.946;2023-12-29T01:36:38;2.13;;;1.70;;
13975;SDS011;7062;49.792;9.946;2023-12-29T01:39:04;2.57;;;2.07;;
13975;SDS011;7062;49.792;9.946;2023-12-29T01:41:30;3.07;;;1.77;;
13975;SDS011;7062;49.792;9.946;2023-12-29T01:46:31;2.20;;;1.70;;
13975;SDS011;7062;49.792;9.946;2023-12-29T01:48:59;2.93;;;1.90;;
13975;SDS011;7062;49.792;9.946;2023-12-29T01:51:26;3.63;;;1.90;;
13975;SDS011;7062;49.792;9.946;2023-12-29T01:53:52;2.23;;;1.80;;
13975;SDS011;7062;49.792;9.946;2023-12-29T01:56:20;1.90;;;1.70;;
13975;SDS011;7062;49.792;9.946;2023-12-29T01:58:47;3.10;;;1.50;;
13975;SDS011;7062;49.792;9.946;2023-12-29T02:01:15;2.87;;;1.53;;
13975;SDS011;7062;49.792;9.946;2023-12-29T02:03:42;2.27;;;1.83;;
13975;SDS011;7062;49.792;9.946;2023-12-29T02:06:09;2.50;;;1.87;;
13975;SDS011;7062;49.792;9.946;2023-12-29T02:08:36;3.97;;;1.73;;
13975;SDS011;7062;49.792;9.946;2023-12-29T02:11:02;4.43;;;1.93;;
13975;SDS011;7062;49.792;9.946;2023-12-29T02:13:29;2.20;;;1.47;;
13975;SDS011;7062;49.792;9.946;2023-12-29T02:15:56;2.33;;;1.90;;
13975;SDS011;7062;49.792;9.946;2023-12-29T02:18:27;3.00;;;1.93;;
13975;SDS011;7062;49.792;9.946;2023-12-29T02:20:55;2.17;;;1.80;;
13975;SDS011;7062;49.792;9.946;2023-12-29T02:23:21;2.27;;;1.47;;
13975;SDS011;7062;49.792;9.946;2023-12-29T02:25:46;2.23;;;1.87;;
13975;SDS011;7062;49.792;9.946;2023-12-29T02:28:18;2.30;;;2.10;;
13975;SDS011;7062;49.792;9.946;2023-12-29T02:33:21;3.70;;;2.47;;
13975;SDS011;7062;49.792;9.946;2023-12-29T02:35:48;3.17;;;2.00;;
13975;SDS011;7062;49.792;9.946;2023-12-29T02:38:16;2.37;;;1.97;;
13975;SDS011;7062;49.792;9.946;2023-12-29T02:40:42;4.23;;;2.57;;
13975;SDS011;7062;49.792;9.946;2023-12-29T02:43:08;2.30;;;2.10;;
13975;SDS011;7062;49.792;9.946;2023-12-29T02:45:34;4.03;;;3.30;;
13975;SDS011;7062;49.792;9.946;2023-12-29T02:48:00;3.43;;;2.23;;
13975;SDS011;7062;49.792;9.946;2023-12-29T02:50:25;3.60;;;3.03;;
13975;SDS011;7062;49.792;9.946;2023-12-29T02:52:51;3.83;;;3.17;;
13975;SDS011;7062;49.792;9.946;2023-12-29T02:55:17;5.50;;;2.53;;
13975;SDS011;7062;49.792;9.946;2023-12-29T02:57:43;5.37;;;2.90;;
13975;SDS011;7062;49.792;9.946;2023-12-29T03:00:08;4.47;;;3.30;;
13975;SDS011;7062;49.792;9.946;2023-12-29T03:02:34;2.93;;;2.47;;
13975;SDS011;7062;49.792;9.946;2023-12-29T03:05:00;3.97;;;2.83;;
13975;SDS011;7062;49.792;9.946;2023-12-29T03:07:26;5.43;;;3.53;;
13975;SDS011;7062;49.792;9.946;2023-12-29T03:09:52;5.53;;;3.13;;
13975;SDS011;7062;49.792;9.946;2023-12-29T03:12:17;4.60;;;2.83;;
13975;SDS011;7062;49.792;9.946;2023-12-29T03:14:43;2.93;;;2.67;;
13975;SDS011;7062;49.792;9.946;2023-12-29T03:17:09;3.77;;;2.80;;
13975;SDS011;7062;49.792;9.946;2023-12-29T03:19:36;3.63;;;2.90;;
13975;SDS011;7062;49.792;9.946;2023-12-29T03:22:02;3.23;;;2.93;;
13975;SDS011;7062;49.792;9.946;2023-12-29T03:24:28;3.50;;;3.20;;
13975;SDS011;7062;49.792;9.946;2023-12-29T03:26:54;4.33;;;2.57;;
13975;SDS011;7062;49.792;9.946;2023-12-29T03:29:20;4.17;;;2.20;;
13975;SDS011;7062;49.792;9.946;2023-12-29T03:31:46;3.57;;;2.90;;
13975;SDS011;7062;49.792;9.946;2023-12-29T03:34:11;3.43;;;2.27;;
13975;SDS011;7062;49.792;9.946;2023-12-29T03:36:37;4.13;;;2.60;;
13975;SDS011;7062;49.792;9.946;2023-12-29T03:39:02;4.00;;;3.17;;
13975;SDS011;7062;49.792;9.946;2023-12-29T03:41:28;3.10;;;2.83;;
13975;SDS011;7062;49.792;9.946;2023-12-29T03:43:54;4.73;;;2.17;;
13975;SDS011;7062;49.792;9.946;2023-12-29T03:46:21;3.73;;;2.23;;
13975;SDS011;7062;49.792;9.946;2023-12-29T03:48:47;2.47;;;1.73;;
13975;SDS011;7062;49.792;9.946;2023-12-29T03:51:14;2.33;;;2.07;;
13975;SDS011;7062;49.792;9.946;2023-12-29T03:53:40;2.53;;;2.33;;
13975;SDS011;7062;49.792;9.946;2023-12-29T03:56:16;2.67;;;2.27;;
13975;SDS011;7062;49.792;9.946;2023-12-29T03:58:43;4.13;;;2.60;;
13975;SDS011;7062;49.792;9.946;2023-12-29T04:01:12;4.17;;;2.60;;
13975;SDS011;7062;49.792;9.946;2023-12-29T04:03:40;2.93;;;2.63;;
13975;SDS011;7062;49.792;9.946;2023-12-29T04:06:06;5.90;;;2.53;;
13975;SDS011;7062;49.792;9.946;2023-12-29T04:08:33;4.80;;;2.33;;
13975;SDS011;7062;49.792;9.946;2023-12-29T04:11:02;4.20;;;2.43;;
13975;SDS011;7062;49.792;9.946;2023-12-29T04:13:29;4.70;;;2.83;;
13975;SDS011;7062;49.792;9.946;2023-12-29T04:15:55;2.73;;;2.07;;
13975;SDS011;7062;49.792;9.946;2023-12-29T04:18:21;2.07;;;1.60;;
13975;SDS011;7062;49.792;9.946;2023-12-29T04:20:48;2.60;;;2.00;;
13975;SDS011;7062;49.792;9.946;2023-12-29T04:23:14;2.53;;;2.00;;
13975;SDS011;7062;49.792;9.946;2023-12-29T04:25:39;3.10;;;2.50;;
13975;SDS011;7062;49.792;9.946;2023-12-29T04:28:09;2.20;;;1.93;;
13975;SDS011;7062;49.792;9.946;2023-12-29T04:30:35;2.10;;;1.63;;
13975;SDS011;7062;49.792;9.946;2023-12-29T04:33:01;3.80;;;2.07;;
13975;SDS011;7062;49.792;9.946;2023-12-29T04:35:26;2.20;;;1.43;;
13975;SDS011;7062;49.792;9.946;2023-12-29T04:37:52;2.10;;;1.40;;
13975;SDS011;7062;49.792;9.946;2023-12-29T04:40:18;4.00;;;1.90;;
13975;SDS011;7062;49.792;9.946;2023-12-29T04:42:44;2.37;;;1.77;;
13975;SDS011;7062;49.792;9.946;2023-12-29T04:45:09;2.47;;;2.07;;
13975;SDS011;7062;49.792;9.946;2023-12-29T04:47:36;1.93;;;1.73;;
13975;SDS011;7062;49.792;9.946;2023-12-29T04:50:02;4.60;;;1.87;;
13975;SDS011;7062;49.792;9.946;2023-12-29T04:52:28;2.17;;;1.70;;
13975;SDS011;7062;49.792;9.946;2023-12-29T04:54:54;3.03;;;2.07;;
13975;SDS011;7062;49.792;9.946;2023-12-29T04:57:19;2.23;;;1.73;;
13975;SDS011;7062;49.792;9.946;2023-12-29T04:59:45;1.90;;;1.40;;
13975;SDS011;7062;49.792;9.946;2023-12-29T05:02:11;2.03;;;1.73;;
13975;SDS011;7062;49.792;9.946;2023-12-29T05:04:36;1.57;;;1.30;;
13975;SDS011;7062;49.792;9.946;2023-12-29T05:07:03;2.60;;;1.70;;
13975;SDS011;7062;49.792;9.946;2023-12-29T05:09:30;1.60;;;1.50;;
13975;SDS011;7062;49.792;9.946;2023-12-29T05:11:55;2.33;;;1.60;;
13975;SDS011;7062;49.792;9.946;2023-12-29T05:14:21;2.43;;;1.40;;
13975;SDS011;7062;49.792;9.946;2023-12-29T05:16:47;2.00;;;1.53;;
13975;SDS011;7062;49.792;9.946;2023-12-29T05:19:12;1.33;;;1.20;;
13975;SDS011;7062;49.792;9.946;2023-12-29T05:21:38;1.83;;;1.40;;
13975;SDS011;7062;49.792;9.946;2023-12-29T05:24:04;1.50;;;1.40;;
13975;SDS011;7062;49.792;9.946;2023-12-29T05:26:31;2.47;;;1.47;;
13975;SDS011;7062;49.792;9.946;2023-12-29T05:28:56;2.50;;;1.77;;
13975;SDS011;7062;49.792;9.946;2023-12-29T05:31:22;1.97;;;1.60;;
13975;SDS011;7062;49.792;9.946;2023-12-29T05:33:48;2.47;;;1.50;;
13975;SDS011;7062;49.792;9.946;2023-12-29T05:36:13;2.60;;;2.10;;
13975;SDS011;7062;49.792;9.946;2023-12-29T05:38:39;1.50;;;1.40;;
13975;SDS011;7062;49.792;9.946;2023-12-29T05:41:06;3.73;;;1.70;;
13975;SDS011;7062;49.792;9.946;2023-12-29T05:43:32;1.87;;;1.77;;
13975;SDS011;7062;49.792;9.946;2023-12-29T05:45:58;1.97;;;1.80;;
13975;SDS011;7062;49.792;9.946;2023-12-29T05:48:24;3.40;;;2.17;;
13975;SDS011;7062;49.792;9.946;2023-12-29T05:50:50;2.97;;;2.33;;
13975;SDS011;7062;49.792;9.946;2023-12-29T05:53:16;5.60;;;2.63;;
13975;SDS011;7062;49.792;9.946;2023-12-29T05:55:45;3.60;;;3.03;;
13975;SDS011;7062;49.792;9.946;2023-12-29T05:58:11;4.17;;;2.53;;
13975;SDS011;7062;49.792;9.946;2023-12-29T06:00:37;4.10;;;3.20;;
13975;SDS011;7062;49.792;9.946;2023-12-29T06:03:03;3.80;;;2.40;;
13975;SDS011;7062;49.792;9.946;2023-12-29T06:05:29;3.73;;;2.37;;
13975;SDS011;7062;49.792;9.946;2023-12-29T06:07:55;3.33;;;2.70;;
13975;SDS011;7062;49.792;9.946;2023-12-29T06:10:21;3.67;;;2.50;;
13975;SDS011;7062;49.792;9.946;2023-12-29T06:12:47;3.37;;;2.87;;
13975;SDS011;7062;49.792;9.946;2023-12-29T06:15:13;3.73;;;2.93;;
13975;SDS011;7062;49.792;9.946;2023-12-29T06:17:41;2.07;;;1.83;;
13975;SDS011;7062;49.792;9.946;2023-12-29T06:20:08;2.97;;;2.57;;
13975;SDS011;7062;49.792;9.946;2023-12-29T06:22:38;3.63;;;2.23;;
13975;SDS011;7062;49.792;9.946;2023-12-29T06:25:08;2.63;;;2.23;;
13975;SDS011;7062;49.792;9.946;2023-12-29T06:27:34;3.73;;;2.43;;
13975;SDS011;7062;49.792;9.946;2023-12-29T06:30:03;2.97;;;2.23;;
13975;SDS011;7062;49.792;9.946;2023-12-29T06:32:32;2.60;;;2.20;;
13975;SDS011;7062;49.792;9.946;2023-12-29T06:34:58;2.30;;;1.90;;
13975;SDS011;7062;49.792;9.946;2023-12-29T06:37:24;2.40;;;2.00;;
13975;SDS011;7062;49.792;9.946;2023-12-29T06:39:49;3.00;;;2.17;;
13975;SDS011;7062;49.792;9.946;2023-12-29T06:42:15;2.70;;;2.20;;
13975;SDS011;7062;49.792;9.946;2023-12-29T06:44:41;2.57;;;2.37;;
13975;SDS011;7062;49.792;9.946;2023-12-29T06:47:06;4.00;;;2.23;;
13975;SDS011;7062;49.792;9.946;2023-12-29T06:49:34;2.90;;;2.40;;
13975;SDS011;7062;49.792;9.946;2023-12-29T06:51:59;2.67;;;1.93;;
13975;SDS011;7062;49.792;9.946;2023-12-29T06:54:25;2.27;;;1.80;;
13975;SDS011;7062;49.792;9.946;2023-12-29T06:56:51;2.67;;;2.47;;
13975;SDS011;7062;49.792;9.946;2023-12-29T06:59:16;3.53;;;2.33;;
13975;SDS011;7062;49.792;9.946;2023-12-29T07:01:44;3.87;;;2.43;;
13975;SDS011;7062;49.792;9.946;2023-12-29T07:04:13;3.27;;;2.27;;
13975;SDS011;7062;49.792;9.946;2023-12-29T07:06:40;3.43;;;2.03;;
13975;SDS011;7062;49.792;9.946;2023-12-29T07:09:06;3.00;;;2.20;;
13975;SDS011;7062;49.792;9.946;2023-12-29T07:11:33;2.63;;;1.80;;
13975;SDS011;7062;49.792;9.946;2023-12-29T07:13:58;4.77;;;2.30;;
13975;SDS011;7062;49.792;9.946;2023-12-29T07:16:24;3.30;;;2.17;;
13975;SDS011;7062;49.792;9.946;2023-12-29T07:18:50;3.63;;;2.40;;
13975;SDS011;7062;49.792;9.946;2023-12-29T07:21:17;4.37;;;2.37;;
13975;SDS011;7062;49.792;9.946;2023-12-29T07:23:43;3.30;;;2.07;;
13975;SDS011;7062;49.792;9.946;2023-12-29T07:26:09;1.83;;;1.63;;
13975;SDS011;7062;49.792;9.946;2023-12-29T07:28:34;2.97;;;2.17;;
13975;SDS011;7062;49.792;9.946;2023-12-29T07:31:00;3.20;;;2.27;;
13975;SDS011;7062;49.792;9.946;2023-12-29T07:33:26;1.87;;;1.67;;
13975;SDS011;7062;49.792;9.946;2023-12-29T07:35:52;2.87;;;1.67;;
13975;SDS011;7062;49.792;9.946;2023-12-29T07:38:18;1.83;;;1.57;;
13975;SDS011;7062;49.792;9.946;2023-12-29T07:40:43;2.07;;;1.70;;
13975;SDS011;7062;49.792;9.946;2023-12-29T07:43:09;2.03;;;1.53;;
13975;SDS011;7062;49.792;9.946;2023-12-29T07:45:35;1.53;;;1.30;;
13975;SDS011;7062;49.792;9.946;2023-12-29T07:48:03;3.67;;;1.70;;
13975;SDS011;7062;49.792;9.946;2023-12-29T07:50:29;3.53;;;1.40;;
13975;SDS011;7062;49.792;9.946;2023-12-29T07:52:55;1.43;;;1.33;;
13975;SDS011;7062;49.792;9.946;2023-12-29T07:55:21;2.20;;;1.53;;
13975;SDS011;7062;49.792;9.946;2023-12-29T07:57:46;1.93;;;1.73;;
13975;SDS011;7062;49.792;9.946;2023-12-29T08:00:16;2.70;;;1.70;;
13975;SDS011;7062;49.792;9.946;2023-12-29T08:02:42;2.00;;;1.60;;
13975;SDS011;7062;49.792;9.946;2023-12-29T08:05:07;2.03;;;1.50;;
13975;SDS011;7062;49.792;9.946;2023-12-29T08:07:33;2.03;;;1.43;;
13975;SDS011;7062;49.792;9.946;2023-12-29T08:10:00;2.30;;;1.30;;
13975;SDS011;7062;49.792;9.946;2023-12-29T08:12:26;3.97;;;1.20;;
13975;SDS011;7062;49.792;9.946;2023-12-29T08:14:53;1.63;;;1.33;;
13975;SDS011;7062;49.792;9.946;2023-12-29T08:17:19;2.03;;;1.47;;
13975;SDS011;7062;49.792;9.946;2023-12-29T08:19:44;2.20;;;1.57;;
13975;SDS011;7062;49.792;9.946;2023-12-29T08:22:10;1.37;;;1.10;;
13975;SDS011;7062;49.792;9.946;2023-12-29T08:24:35;1.87;;;1.20;;
13975;SDS011;7062;49.792;9.946;2023-12-29T08:27:01;1.30;;;1.17;;
13975;SDS011;7062;49.792;9.946;2023-12-29T08:29:28;2.13;;;1.60;;
13975;SDS011;7062;49.792;9.946;2023-12-29T08:31:54;3.20;;;1.53;;
13975;SDS011;7062;49.792;9.946;2023-12-29T08:34:20;1.30;;;1.20;;
13975;SDS011;7062;49.792;9.946;2023-12-29T08:36:45;1.83;;;1.13;;
13975;SDS011;7062;49.792;9.946;2023-12-29T08:39:11;2.67;;;1.33;;
13975;SDS011;7062;49.792;9.946;2023-12-29T08:41:37;2.03;;;1.17;;
13975;SDS011;7062;49.792;9.946;2023-12-29T08:44:02;1.30;;;1.20;;
13975;SDS011;7062;49.792;9.946;2023-12-29T08:46:29;1.47;;;1.00;;
13975;SDS011;7062;49.792;9.946;2023-12-29T08:48:54;1.77;;;1.10;;
13975;SDS011;7062;49.792;9.946;2023-12-29T08:51:20;1.00;;;0.90;;
13975;SDS011;7062;49.792;9.946;2023-12-29T08:53:45;1.37;;;1.20;;
13975;SDS011;7062;49.792;9.946;2023-12-29T08:56:11;1.93;;;1.30;;
13975;SDS011;7062;49.792;9.946;2023-12-29T08:58:38;2.10;;;0.90;;
13975;SDS011;7062;49.792;9.946;2023-12-29T09:01:05;1.43;;;1.20;;
13975;SDS011;7062;49.792;9.946;2023-12-29T09:03:30;3.17;;;1.43;;
13975;SDS011;7062;49.792;9.946;2023-12-29T09:05:56;1.03;;;0.93;;
13975;SDS011;7062;49.792;9.946;2023-12-29T09:08:22;2.73;;;0.97;;
13975;SDS011;7062;49.792;9.946;2023-12-29T09:10:47;1.90;;;1.07;;
13975;SDS011;7062;49.792;9.946;2023-12-29T09:13:13;1.07;;;0.80;;
13975;SDS011;7062;49.792;9.946;2023-12-29T09:15:39;1.60;;;1.03;;
13975;SDS011;7062;49.792;9.946;2023-12-29T09:18:04;0.90;;;0.80;;
13975;SDS011;7062;49.792;9.946;2023-12-29T09:20:31;0.70;;;0.70;;
13975;SDS011;7062;49.792;9.946;2023-12-29T09:22:56;1.60;;;0.73;;
13975;SDS011;7062;49.792;9.946;2023-12-29T09:25:23;1.10;;;1.00;;
13975;SDS011;7062;49.792;9.946;2023-12-29T09:27:48;2.47;;;1.43;;
13975;SDS011;7062;49.792;9.946;2023-12-29T09:30:17;1.37;;;1.00;;
13975;SDS011;7062;49.792;9.946;2023-12-29T09:32:43;1.27;;;0.80;;
13975;SDS011;7062;49.792;9.946;2023-12-29T09:35:09;2.93;;;1.00;;
13975;SDS011;7062;49.792;9.946;2023-12-29T09:37:35;1.27;;;1.13;;
13975;SDS011;7062;49.792;9.946;2023-12-29T09:40:00;1.90;;;0.90;;
13975;SDS011;7062;49.792;9.946;2023-12-29T09:42:26;1.67;;;1.00;;
13975;SDS011;7062;49.792;9.946;2023-12-29T09:44:54;4.70;;;1.87;;
13975;SDS011;7062;49.792;9.946;2023-12-29T09:47:21;1.50;;;1.00;;
13975;SDS011;7062;49.792;9.946;2023-12-29T09:49:48;1.33;;;0.90;;
13975;SDS011;7062;49.792;9.946;2023-12-29T09:52:16;1.70;;;1.00;;
13975;SDS011;7062;49.792;9.946;2023-12-29T09:54:44;1.00;;;0.90;;
13975;SDS011;7062;49.792;9.946;2023-12-29T09:57:09;2.27;;;1.03;;
13975;SDS011;7062;49.792;9.946;2023-12-29T09:59:35;1.23;;;0.97;;
13975;SDS011;7062;49.792;9.946;2023-12-29T10:02:04;1.20;;;1.07;;
13975;SDS011;7062;49.792;9.946;2023-12-29T10:04:30;4.43;;;1.43;;
13975;SDS011;7062;49.792;9.946;2023-12-29T10:06:56;0.83;;;0.83;;
13975;SDS011;7062;49.792;9.946;2023-12-29T10:09:28;1.83;;;0.90;;
13975;SDS011;7062;49.792;9.946;2023-12-29T10:11:55;1.00;;;0.90;;
13975;SDS011;7062;49.792;9.946;2023-12-29T10:14:26;1.80;;;1.00;;
13975;SDS011;7062;49.792;9.946;2023-12-29T10:17:03;4.53;;;1.33;;
13975;SDS011;7062;49.792;9.946;2023-12-29T10:19:40;1.27;;;1.03;;
13975;SDS011;7062;49.792;9.946;2023-12-29T10:22:08;3.00;;;1.60;;
13975;SDS011;7062;49.792;9.946;2023-12-29T10:24:55;1.73;;;1.20;;
13975;SDS011;7062;49.792;9.946;2023-12-29T10:27:21;1.00;;;0.90;;
13975;SDS011;7062;49.792;9.946;2023-12-29T10:29:48;1.57;;;1.00;;
13975;SDS011;7062;49.792;9.946;2023-12-29T10:32:13;2.53;;;1.00;;
13975;SDS011;7062;49.792;9.946;2023-12-29T10:34:39;1.57;;;1.00;;
13975;SDS011;7062;49.792;9.946;2023-12-29T10:37:06;2.73;;;1.40;;
13975;SDS011;7062;49.792;9.946;2023-12-29T10:39:38;3.47;;;1.10;;
13975;SDS011;7062;49.792;9.946;2023-12-29T10:42:04;1.10;;;0.70;;
13975;SDS011;7062;49.792;9.946;2023-12-29T10:44:36;1.87;;;1.20;;
13975;SDS011;7062;49.792;9.946;2023-12-29T10:47:11;1.13;;;0.93;;
13975;SDS011;7062;49.792;9.946;2023-12-29T10:49:38;2.47;;;0.87;;
13975;SDS011;7062;49.792;9.946;2023-12-29T10:52:14;1.17;;;0.90;;
13975;SDS011;7062;49.792;9.946;2023-12-29T10:54:41;2.03;;;0.93;;
13975;SDS011;7062;49.792;9.946;2023-12-29T10:57:08;1.93;;;0.90;;
13975;SDS011;7062;49.792;9.946;2023-12-29T10:59:36;2.97;;;1.03;;
13975;SDS011;7062;49.792;9.946;2023-12-29T11:02:02;2.00;;;0.70;;
13975;SDS011;7062;49.792;9.946;2023-12-29T11:04:28;1.53;;;0.83;;
13975;SDS011;7062;49.792;9.946;2023-12-29T11:06:54;1.07;;;0.97;;
13975;SDS011;7062;49.792;9.946;2023-12-29T11:09:29;3.27;;;1.10;;
13975;SDS011;7062;49.792;9.946;2023-12-29T11:12:00;1.27;;;0.77;;
13975;SDS011;7062;49.792;9.946;2023-12-29T11:14:27;1.07;;;0.67;;
13975;SDS011;7062;49.792;9.946;2023-12-29T11:16:54;2.50;;;0.70;;
13975;SDS011;7062;49.792;9.946;2023-12-29T11:19:20;3.53;;;0.87;;
13975;SDS011;7062;49.792;9.946;2023-12-29T11:21:46;1.03;;;0.87;;
13975;SDS011;7062;49.792;9.946;2023-12-29T11:24:17;1.10;;;0.70;;
13975;SDS011;7062;49.792;9.946;2023-12-29T11:26:42;2.70;;;0.60;;
13975;SDS011;7062;49.792;9.946;2023-12-29T11:29:09;1.07;;;0.77;;
13975;SDS011;7062;49.792;9.946;2023-12-29T11:31:36;0.63;;;0.60;;
13975;SDS011;7062;49.792;9.946;2023-12-29T11:37:11;0.70;;;0.60;;
13975;SDS011;7062;49.792;9.946;2023-12-29T11:39:50;2.03;;;0.80;;
13975;SDS011;7062;49.792;9.946;2023-12-29T11:42:27;2.03;;;0.80;;
13975;SDS011;7062;49.792;9.946;2023-12-29T11:45:23;2.20;;;0.80;;
13975;SDS011;7062;49.792;9.946;2023-12-29T11:47:49;1.17;;;0.63;;
13975;SDS011;7062;49.792;9.946;2023-12-29T11:50:26;1.43;;;0.50;;
13975;SDS011;7062;49.792;9.946;2023-12-29T11:52:57;1.30;;;0.70;;
13975;SDS011;7062;49.792;9.946;2023-12-29T11:55:27;0.97;;;0.80;;
13975;SDS011;7062;49.792;9.946;2023-12-29T11:58:01;1.13;;;0.73;;
13975;SDS011;7062;49.792;9.946;2023-12-29T12:00:42;1.10;;;0.80;;
13975;SDS011;7062;49.792;9.946;2023-12-29T12:03:25;1.53;;;0.90;;
13975;SDS011;7062;49.792;9.946;2023-12-29T12:05:52;1.90;;;0.87;;
13975;SDS011;7062;49.792;9.946;2023-12-29T12:10:53;1.00;;;0.90;;
13975;SDS011;7062;49.792;9.946;2023-12-29T12:14:01;0.83;;;0.67;;
13975;SDS011;7062;49.792;9.946;2023-12-29T12:16:09;1.07;;;0.80;;
13975;SDS011;7062;49.792;9.946;2023-12-29T12:18:55;1.10;;;1.00;;
13975;SDS011;7062;49.792;9.946;2023-12-29T12:21:21;1.40;;;0.90;;
13975;SDS011;7062;49.792;9.946;2023-12-29T12:23:48;2.27;;;0.80;;
13975;SDS011;7062;49.792;9.946;2023-12-29T12:26:16;1.83;;;0.70;;
13975;SDS011;7062;49.792;9.946;2023-12-29T12:28:44;0.97;;;0.80;;
13975;SDS011;7062;49.792;9.946;2023-12-29T12:31:12;2.47;;;1.07;;
13975;SDS011;7062;49.792;9.946;2023-12-29T12:33:38;1.40;;;0.90;;
13975;SDS011;7062;49.792;9.946;2023-12-29T12:36:04;1.20;;;1.00;;
13975;SDS011;7062;49.792;9.946;2023-12-29T12:38:30;0.97;;;0.90;;
13975;SDS011;7062;49.792;9.946;2023-12-29T12:41:08;5.63;;;1.10;;
13975;SDS011;7062;49.792;9.946;2023-12-29T12:43:36;0.57;;;0.57;;
13975;SDS011;7062;49.792;9.946;2023-12-29T12:46:09;0.97;;;0.67;;
13975;SDS011;7062;49.792;9.946;2023-12-29T12:48:36;3.23;;;1.00;;
13975;SDS011;7062;49.792;9.946;2023-12-29T12:51:11;0.80;;;0.70;;
13975;SDS011;7062;49.792;9.946;2023-12-29T12:53:41;2.20;;;0.80;;
13975;SDS011;7062;49.792;9.946;2023-12-29T12:56:09;1.33;;;0.80;;
13975;SDS011;7062;49.792;9.946;2023-12-29T12:58:35;1.00;;;0.90;;
13975;SDS011;7062;49.792;9.946;2023-12-29T13:01:01;1.27;;;0.77;;
13975;SDS011;7062;49.792;9.946;2023-12-29T13:03:27;1.93;;;0.80;;
13975;SDS011;7062;49.792;9.946;2023-12-29T13:05:55;3.90;;;1.00;;
13975;SDS011;7062;49.792;9.946;2023-12-29T13:08:22;2.20;;;0.70;;
13975;SDS011;7062;49.792;9.946;2023-12-29T13:10:49;1.03;;;0.50;;
13975;SDS011;7062;49.792;9.946;2023-12-29T13:13:15;2.23;;;0.77;;
13975;SDS011;7062;49.792;9.946;2023-12-29T13:18:16;1.70;;;1.43;;
13975;SDS011;7062;49.792;9.946;2023-12-29T13:20:47;0.80;;;0.60;;
13975;SDS011;7062;49.792;9.946;2023-12-29T13:23:14;0.87;;;0.80;;
13975;SDS011;7062;49.792;9.946;2023-12-29T13:25:40;1.97;;;0.80;;
13975;SDS011;7062;49.792;9.946;2023-12-29T13:28:08;3.03;;;0.70;;
13975;SDS011;7062;49.792;9.946;2023-12-29T13:30:34;1.23;;;0.60;;
13975;SDS011;7062;49.792;9.946;2023-12-29T13:33:07;0.50;;;0.50;;
13975;SDS011;7062;49.792;9.946;2023-12-29T13:35:50;3.07;;;0.80;;
13975;SDS011;7062;49.792;9.946;2023-12-29T13:38:25;1.60;;;0.87;;
13975;SDS011;7062;49.792;9.946;2023-12-29T13:41:01;0.40;;;0.40;;
13975;SDS011;7062;49.792;9.946;2023-12-29T13:43:30;1.47;;;0.53;;
13975;SDS011;7062;49.792;9.946;2023-12-29T13:45:59;0.50;;;0.50;;
13975;SDS011;7062;49.792;9.946;2023-12-29T13:48:26;1.60;;;0.70;;
13975;SDS011;7062;49.792;9.946;2023-12-29T13:50:53;0.87;;;0.50;;
13975;SDS011;7062;49.792;9.946;2023-12-29T13:53:19;0.63;;;0.63;;
13975;SDS011;7062;49.792;9.946;2023-12-29T13:55:46;3.50;;;0.63;;
13975;SDS011;7062;49.792;9.946;2023-12-29T13:58:12;1.03;;;0.63;;
13975;SDS011;7062;49.792;9.946;2023-12-29T14:00:38;1.00;;;0.60;;
13975;SDS011;7062;49.792;9.946;2023-12-29T14:03:06;1.00;;;0.70;;
13975;SDS011;7062;49.792;9.946;2023-12-29T14:05:39;0.70;;;0.60;;
13975;SDS011;7062;49.792;9.946;2023-12-29T14:08:31;2.67;;;0.70;;
13975;SDS011;7062;49.792;9.946;2023-12-29T14:11:09;0.40;;;0.40;;
13975;SDS011;7062;49.792;9.946;2023-12-29T14:13:35;1.60;;;0.60;;
13975;SDS011;7062;49.792;9.946;2023-12-29T14:16:09;0.90;;;0.60;;
13975;SDS011;7062;49.792;9.946;2023-12-29T14:21:31;0.90;;;0.70;;
13975;SDS011;7062;49.792;9.946;2023-12-29T14:26:33;0.57;;;0.47;;
13975;SDS011;7062;49.792;9.946;2023-12-29T14:29:09;0.77;;;0.63;;
13975;SDS011;7062;49.792;9.946;2023-12-29T14:31:36;0.53;;;0.37;;
13975;SDS011;7062;49.792;9.946;2023-12-29T14:34:09;0.67;;;0.60;;
13975;SDS011;7062;49.792;9.946;2023-12-29T14:36:37;1.63;;;0.50;;
13975;SDS011;7062;49.792;9.946;2023-12-29T14:39:04;2.07;;;0.70;;
13975;SDS011;7062;49.792;9.946;2023-12-29T14:41:30;0.60;;;0.50;;
13975;SDS011;7062;49.792;9.946;2023-12-29T14:43:56;1.53;;;1.00;;
13975;SDS011;7062;49.792;9.946;2023-12-29T14:46:21;2.53;;;0.93;;
13975;SDS011;7062;49.792;9.946;2023-12-29T14:48:47;1.43;;;0.70;;
13975;SDS011;7062;49.792;9.946;2023-12-29T14:51:13;2.23;;;0.90;;
13975;SDS011;7062;49.792;9.946;2023-12-29T14:53:39;1.50;;;0.90;;
13975;SDS011;7062;49.792;9.946;2023-12-29T14:56:10;7.53;;;0.97;;
13975;SDS011;7062;49.792;9.946;2023-12-29T14:58:36;1.00;;;0.80;;
13975;SDS011;7062;49.792;9.946;2023-12-29T15:01:01;1.43;;;0.93;;
13975;SDS011;7062;49.792;9.946;2023-12-29T15:03:28;0.80;;;0.80;;
13975;SDS011;7062;49.792;9.946;2023-12-29T15:05:54;2.30;;;1.10;;
13975;SDS011;7062;49.792;9.946;2023-12-29T15:08:20;1.63;;;0.70;;
13975;SDS011;7062;49.792;9.946;2023-12-29T15:10:45;1.80;;;1.03;;
13975;SDS011;7062;49.792;9.946;2023-12-29T15:13:11;2.93;;;0.83;;
13975;SDS011;7062;49.792;9.946;2023-12-29T15:15:37;1.30;;;0.80;;
13975;SDS011;7062;49.792;9.946;2023-12-29T15:18:03;2.00;;;1.03;;
13975;SDS011;7062;49.792;9.946;2023-12-29T15:20:29;1.37;;;0.77;;